sensor_id;sensor_type;location;lat;lon;timestamp;pressure;altitude;pressure_sealevel;temperature;humidity
66703;BME280;60933;46.398;-63.798;2023-07-29T00:01:21;100669.69;;;25.82;62.15
66703;BME280;60933;46.398;-63.798;2023-07-29T00:03:47;100691.09;;;25.79;62.65
66703;BME280;60933;46.398;-63.798;2023-07-29T00:06:13;100687.59;;;25.68;61.93
66703;BME280;60933;46.398;-63.798;2023-07-29T00:08:39;100684.41;;;25.55;63.07
66703;BME280;60933;46.398;-63.798;2023-07-29T00:11:05;100684.09;;;25.48;62.43
66703;BME280;60933;46.398;-63.798;2023-07-29T00:13:31;100703.81;;;25.34;64.46
66703;BME280;60933;46.398;-63.798;2023-07-29T00:15:58;100702.38;;;25.20;64.74
66703;BME280;60933;46.398;-63.798;2023-07-29T00:18:24;100707.09;;;25.17;63.89
66703;BME280;60933;46.398;-63.798;2023-07-29T00:20:50;100705.56;;;25.14;64.64
66703;BME280;60933;46.398;-63.798;2023-07-29T00:23:17;100694.53;;;24.99;65.27
66703;BME280;60933;46.398;-63.798;2023-07-29T00:25:47;100694.22;;;24.92;65.50
66703;BME280;60933;46.398;-63.798;2023-07-29T00:28:13;100696.94;;;24.81;65.53
66703;BME280;60933;46.398;-63.798;2023-07-29T00:30:39;100686.34;;;24.71;65.49
66703;BME280;60933;46.398;-63.798;2023-07-29T00:33:05;100699.59;;;24.60;66.32
66703;BME280;60933;46.398;-63.798;2023-07-29T00:35:31;100720.47;;;24.42;68.86
66703;BME280;60933;46.398;-63.798;2023-07-29T00:37:57;100727.72;;;24.28;67.96
66703;BME280;60933;46.398;-63.798;2023-07-29T00:40:23;100734.03;;;24.16;68.47
66703;BME280;60933;46.398;-63.798;2023-07-29T00:42:49;100736.56;;;24.06;66.88
66703;BME280;60933;46.398;-63.798;2023-07-29T00:45:16;100744.47;;;24.06;65.97
66703;BME280;60933;46.398;-63.798;2023-07-29T00:47:42;100741.91;;;23.95;66.63
66703;BME280;60933;46.398;-63.798;2023-07-29T00:50:11;100750.38;;;23.87;68.64
66703;BME280;60933;46.398;-63.798;2023-07-29T00:52:37;100754.75;;;23.77;68.29
66703;BME280;60933;46.398;-63.798;2023-07-29T00:55:04;100764.44;;;23.76;67.92
66703;BME280;60933;46.398;-63.798;2023-07-29T00:57:31;100767.13;;;23.65;71.71
66703;BME280;60933;46.398;-63.798;2023-07-29T00:59:59;100780.28;;;23.53;70.00
66703;BME280;60933;46.398;-63.798;2023-07-29T01:02:26;100793.72;;;23.39;73.38
66703;BME280;60933;46.398;-63.798;2023-07-29T01:04:57;100784.75;;;23.30;72.92
66703;BME280;60933;46.398;-63.798;2023-07-29T01:07:30;100789.78;;;23.22;73.00
66703;BME280;60933;46.398;-63.798;2023-07-29T01:10:23;100800.25;;;23.11;74.84
66703;BME280;60933;46.398;-63.798;2023-07-29T01:15:54;100796.53;;;22.90;78.39
66703;BME280;60933;46.398;-63.798;2023-07-29T01:18:26;100789.34;;;22.81;80.76
66703;BME280;60933;46.398;-63.798;2023-07-29T01:20:55;100781.06;;;22.74;82.28
66703;BME280;60933;46.398;-63.798;2023-07-29T01:23:36;100761.31;;;22.69;82.22
66703;BME280;60933;46.398;-63.798;2023-07-29T01:26:03;100735.97;;;22.68;77.47
66703;BME280;60933;46.398;-63.798;2023-07-29T01:28:29;100694.97;;;22.76;76.49
66703;BME280;60933;46.398;-63.798;2023-07-29T01:33:59;100679.41;;;22.85;76.44
66703;BME280;60933;46.398;-63.798;2023-07-29T01:36:29;100676.06;;;22.83;77.10
66703;BME280;60933;46.398;-63.798;2023-07-29T01:38:57;100663.75;;;22.83;75.22
66703;BME280;60933;46.398;-63.798;2023-07-29T01:41:25;100663.03;;;22.81;74.97
66703;BME280;60933;46.398;-63.798;2023-07-29T01:43:53;100669.13;;;22.82;75.50
66703;BME280;60933;46.398;-63.798;2023-07-29T01:46:20;100673.91;;;22.76;75.81
66703;BME280;60933;46.398;-63.798;2023-07-29T01:48:46;100680.94;;;22.76;75.61
66703;BME280;60933;46.398;-63.798;2023-07-29T01:51:12;100686.47;;;22.73;78.50
66703;BME280;60933;46.398;-63.798;2023-07-29T01:53:39;100680.00;;;22.66;76.68
66703;BME280;60933;46.398;-63.798;2023-07-29T01:56:05;100670.56;;;22.63;76.05
66703;BME280;60933;46.398;-63.798;2023-07-29T01:58:31;100649.97;;;22.57;76.62
66703;BME280;60933;46.398;-63.798;2023-07-29T02:00:57;100660.13;;;22.61;76.44
66703;BME280;60933;46.398;-63.798;2023-07-29T02:03:23;100663.72;;;22.60;75.69
66703;BME280;60933;46.398;-63.798;2023-07-29T02:05:49;100662.16;;;22.58;76.40
66703;BME280;60933;46.398;-63.798;2023-07-29T02:08:15;100654.88;;;22.50;76.57
66703;BME280;60933;46.398;-63.798;2023-07-29T02:10:42;100649.84;;;22.47;77.17
66703;BME280;60933;46.398;-63.798;2023-07-29T02:13:11;100624.47;;;22.35;76.60
66703;BME280;60933;46.398;-63.798;2023-07-29T02:15:37;100645.88;;;22.41;76.36
66703;BME280;60933;46.398;-63.798;2023-07-29T02:18:03;100655.72;;;22.39;76.84
66703;BME280;60933;46.398;-63.798;2023-07-29T02:20:29;100638.78;;;22.30;76.27
66703;BME280;60933;46.398;-63.798;2023-07-29T02:22:55;100645.50;;;22.35;76.57
66703;BME280;60933;46.398;-63.798;2023-07-29T02:25:21;100651.00;;;22.32;76.44
66703;BME280;60933;46.398;-63.798;2023-07-29T02:27:47;100660.28;;;22.24;78.56
66703;BME280;60933;46.398;-63.798;2023-07-29T02:30:13;100645.94;;;22.17;77.44
66703;BME280;60933;46.398;-63.798;2023-07-29T02:32:40;100632.78;;;22.17;76.60
66703;BME280;60933;46.398;-63.798;2023-07-29T02:35:06;100646.88;;;22.16;79.02
66703;BME280;60933;46.398;-63.798;2023-07-29T02:37:32;100630.84;;;22.08;76.75
66703;BME280;60933;46.398;-63.798;2023-07-29T02:39:59;100638.53;;;22.11;79.58
66703;BME280;60933;46.398;-63.798;2023-07-29T02:42:25;100630.97;;;22.06;77.83
66703;BME280;60933;46.398;-63.798;2023-07-29T02:44:52;100628.84;;;22.11;79.58
66703;BME280;60933;46.398;-63.798;2023-07-29T02:47:18;100625.50;;;22.09;77.48
66703;BME280;60933;46.398;-63.798;2023-07-29T02:49:44;100617.38;;;22.01;79.83
66703;BME280;60933;46.398;-63.798;2023-07-29T02:52:10;100622.38;;;22.04;78.09
66703;BME280;60933;46.398;-63.798;2023-07-29T02:54:37;100617.97;;;22.05;83.43
66703;BME280;60933;46.398;-63.798;2023-07-29T02:57:03;100607.06;;;21.98;79.12
66703;BME280;60933;46.398;-63.798;2023-07-29T02:59:29;100607.06;;;21.98;82.36
66703;BME280;60933;46.398;-63.798;2023-07-29T03:01:55;100618.88;;;21.92;79.85
66703;BME280;60933;46.398;-63.798;2023-07-29T03:04:21;100624.13;;;21.92;78.89
66703;BME280;60933;46.398;-63.798;2023-07-29T03:06:49;100635.84;;;22.00;84.50
66703;BME280;60933;46.398;-63.798;2023-07-29T03:09:15;100630.97;;;21.95;81.47
66703;BME280;60933;46.398;-63.798;2023-07-29T03:11:41;100638.00;;;21.94;82.81
66703;BME280;60933;46.398;-63.798;2023-07-29T03:14:07;100642.75;;;21.89;82.43
66703;BME280;60933;46.398;-63.798;2023-07-29T03:16:33;100631.66;;;21.86;81.60
66703;BME280;60933;46.398;-63.798;2023-07-29T03:18:59;100619.78;;;21.80;82.09
66703;BME280;60933;46.398;-63.798;2023-07-29T03:21:25;100640.47;;;21.85;81.28
66703;BME280;60933;46.398;-63.798;2023-07-29T03:23:52;100644.50;;;21.77;85.56
66703;BME280;60933;46.398;-63.798;2023-07-29T03:26:18;100632.53;;;21.73;82.88
66703;BME280;60933;46.398;-63.798;2023-07-29T03:28:44;100633.28;;;21.75;87.40
66703;BME280;60933;46.398;-63.798;2023-07-29T03:31:11;100636.97;;;21.73;86.88
66703;BME280;60933;46.398;-63.798;2023-07-29T03:33:37;100640.41;;;21.73;89.47
66703;BME280;60933;46.398;-63.798;2023-07-29T03:36:04;100643.38;;;21.69;89.45
66703;BME280;60933;46.398;-63.798;2023-07-29T03:38:30;100641.50;;;21.71;85.47
66703;BME280;60933;46.398;-63.798;2023-07-29T03:40:58;100654.88;;;21.68;88.07
66703;BME280;60933;46.398;-63.798;2023-07-29T03:43:24;100646.47;;;21.62;84.46
66703;BME280;60933;46.398;-63.798;2023-07-29T03:45:50;100642.16;;;21.61;88.46
66703;BME280;60933;46.398;-63.798;2023-07-29T03:48:16;100643.22;;;21.59;84.70
66703;BME280;60933;46.398;-63.798;2023-07-29T03:50:43;100645.63;;;21.62;86.11
66703;BME280;60933;46.398;-63.798;2023-07-29T03:53:09;100645.13;;;21.57;89.72
66703;BME280;60933;46.398;-63.798;2023-07-29T03:55:35;100636.63;;;21.53;85.66
66703;BME280;60933;46.398;-63.798;2023-07-29T03:58:01;100648.06;;;21.52;86.60
66703;BME280;60933;46.398;-63.798;2023-07-29T04:00:27;100665.22;;;21.45;88.87
66703;BME280;60933;46.398;-63.798;2023-07-29T04:02:54;100671.63;;;21.41;89.03
66703;BME280;60933;46.398;-63.798;2023-07-29T04:05:20;100685.53;;;21.30;90.86
66703;BME280;60933;46.398;-63.798;2023-07-29T04:07:46;100675.34;;;21.25;91.83
66703;BME280;60933;46.398;-63.798;2023-07-29T04:10:13;100660.38;;;21.14;91.83
66703;BME280;60933;46.398;-63.798;2023-07-29T04:12:39;100663.09;;;21.13;93.46
66703;BME280;60933;46.398;-63.798;2023-07-29T04:15:06;100668.56;;;21.10;94.37
66703;BME280;60933;46.398;-63.798;2023-07-29T04:17:32;100674.88;;;21.07;94.20
66703;BME280;60933;46.398;-63.798;2023-07-29T04:19:58;100658.50;;;21.03;94.89
66703;BME280;60933;46.398;-63.798;2023-07-29T04:22:24;100638.13;;;21.07;95.52
66703;BME280;60933;46.398;-63.798;2023-07-29T04:24:50;100630.25;;;21.07;95.92
66703;BME280;60933;46.398;-63.798;2023-07-29T04:27:16;100611.88;;;21.07;94.96
66703;BME280;60933;46.398;-63.798;2023-07-29T04:29:43;100594.47;;;21.06;96.49
66703;BME280;60933;46.398;-63.798;2023-07-29T04:32:09;100581.13;;;21.09;92.42
66703;BME280;60933;46.398;-63.798;2023-07-29T04:34:35;100567.56;;;21.15;90.68
66703;BME280;60933;46.398;-63.798;2023-07-29T04:37:01;100561.97;;;21.20;89.94
66703;BME280;60933;46.398;-63.798;2023-07-29T04:39:27;100557.56;;;21.21;89.23
66703;BME280;60933;46.398;-63.798;2023-07-29T04:41:53;100557.69;;;21.19;88.37
66703;BME280;60933;46.398;-63.798;2023-07-29T04:44:20;100568.19;;;21.19;88.37
66703;BME280;60933;46.398;-63.798;2023-07-29T04:46:46;100560.31;;;21.19;92.09
66703;BME280;60933;46.398;-63.798;2023-07-29T04:49:12;100567.22;;;21.20;89.36
66703;BME280;60933;46.398;-63.798;2023-07-29T04:51:38;100582.84;;;21.22;91.77
66703;BME280;60933;46.398;-63.798;2023-07-29T04:54:04;100583.09;;;21.18;92.07
66703;BME280;60933;46.398;-63.798;2023-07-29T04:56:31;100593.47;;;21.20;92.43
66703;BME280;60933;46.398;-63.798;2023-07-29T04:58:57;100592.13;;;21.14;94.51
66703;BME280;60933;46.398;-63.798;2023-07-29T05:01:23;100589.00;;;21.09;96.61
66703;BME280;60933;46.398;-63.798;2023-07-29T05:03:50;100573.34;;;21.08;96.40
66703;BME280;60933;46.398;-63.798;2023-07-29T05:06:16;100575.75;;;21.11;91.39
66703;BME280;60933;46.398;-63.798;2023-07-29T05:08:42;100558.75;;;21.16;89.64
66703;BME280;60933;46.398;-63.798;2023-07-29T05:11:08;100561.97;;;21.20;92.96
66703;BME280;60933;46.398;-63.798;2023-07-29T05:13:34;100564.59;;;21.20;89.49
66703;BME280;60933;46.398;-63.798;2023-07-29T05:16:00;100549.81;;;21.19;88.91
66703;BME280;60933;46.398;-63.798;2023-07-29T05:18:27;100549.19;;;21.15;87.47
66703;BME280;60933;46.398;-63.798;2023-07-29T05:20:53;100554.09;;;21.20;91.31
66703;BME280;60933;46.398;-63.798;2023-07-29T05:23:19;100556.84;;;21.18;89.61
66703;BME280;60933;46.398;-63.798;2023-07-29T05:25:45;100547.19;;;21.19;90.05
66703;BME280;60933;46.398;-63.798;2023-07-29T05:28:11;100534.19;;;21.17;91.27
66703;BME280;60933;46.398;-63.798;2023-07-29T05:30:37;100532.72;;;21.13;91.18
66703;BME280;60933;46.398;-63.798;2023-07-29T05:33:05;100528.31;;;21.14;89.68
66703;BME280;60933;46.398;-63.798;2023-07-29T05:35:34;100506.63;;;21.23;88.30
66703;BME280;60933;46.398;-63.798;2023-07-29T05:38:00;100506.41;;;21.26;89.49
66703;BME280;60933;46.398;-63.798;2023-07-29T05:40:26;100507.47;;;21.24;89.43
66703;BME280;60933;46.398;-63.798;2023-07-29T05:42:52;100503.78;;;21.26;91.27
66703;BME280;60933;46.398;-63.798;2023-07-29T05:45:19;100489.94;;;21.24;91.12
66703;BME280;60933;46.398;-63.798;2023-07-29T05:47:45;100499.13;;;21.18;91.41
66703;BME280;60933;46.398;-63.798;2023-07-29T05:50:11;100502.44;;;21.21;92.22
66703;BME280;60933;46.398;-63.798;2023-07-29T05:52:38;100488.09;;;21.13;90.84
66703;BME280;60933;46.398;-63.798;2023-07-29T05:55:04;100484.66;;;21.13;89.07
66703;BME280;60933;46.398;-63.798;2023-07-29T05:57:30;100489.66;;;21.16;90.13
66703;BME280;60933;46.398;-63.798;2023-07-29T05:59:56;100494.28;;;21.12;88.46
66703;BME280;60933;46.398;-63.798;2023-07-29T06:02:22;100493.94;;;21.17;88.52
66703;BME280;60933;46.398;-63.798;2023-07-29T06:04:48;100504.97;;;21.22;87.96
66703;BME280;60933;46.398;-63.798;2023-07-29T06:07:15;100500.66;;;21.21;89.27
66703;BME280;60933;46.398;-63.798;2023-07-29T06:09:41;100486.69;;;21.21;87.12
66703;BME280;60933;46.398;-63.798;2023-07-29T06:12:07;100481.97;;;21.26;86.03
66703;BME280;60933;46.398;-63.798;2023-07-29T06:14:34;100477.31;;;21.29;86.96
66703;BME280;60933;46.398;-63.798;2023-07-29T06:17:00;100478.34;;;21.27;86.90
66703;BME280;60933;46.398;-63.798;2023-07-29T06:19:26;100475.38;;;21.31;88.16
66703;BME280;60933;46.398;-63.798;2023-07-29T06:21:55;100478.97;;;21.30;87.56
66703;BME280;60933;46.398;-63.798;2023-07-29T06:24:21;100480.31;;;21.36;87.45
66703;BME280;60933;46.398;-63.798;2023-07-29T06:26:48;100475.19;;;21.34;87.07
66703;BME280;60933;46.398;-63.798;2023-07-29T06:29:14;100471.25;;;21.40;85.34
66703;BME280;60933;46.398;-63.798;2023-07-29T06:31:40;100472.34;;;21.38;86.05
66703;BME280;60933;46.398;-63.798;2023-07-29T06:34:06;100463.47;;;21.27;86.34
66703;BME280;60933;46.398;-63.798;2023-07-29T06:36:32;100459.97;;;21.27;85.65
66703;BME280;60933;46.398;-63.798;2023-07-29T06:38:58;100471.56;;;21.24;86.62
66703;BME280;60933;46.398;-63.798;2023-07-29T06:41:24;100475.13;;;21.23;88.88
66703;BME280;60933;46.398;-63.798;2023-07-29T06:43:50;100462.69;;;21.14;87.07
66703;BME280;60933;46.398;-63.798;2023-07-29T06:46:16;100474.25;;;21.11;86.37
66703;BME280;60933;46.398;-63.798;2023-07-29T06:48:43;100473.75;;;21.06;87.82
66703;BME280;60933;46.398;-63.798;2023-07-29T06:51:09;100473.88;;;21.05;88.93
66703;BME280;60933;46.398;-63.798;2023-07-29T06:53:35;100470.63;;;21.01;88.29
66703;BME280;60933;46.398;-63.798;2023-07-29T06:56:01;100473.59;;;20.96;90.82
66703;BME280;60933;46.398;-63.798;2023-07-29T06:58:28;100479.28;;;20.90;88.52
66703;BME280;60933;46.398;-63.798;2023-07-29T07:00:54;100473.44;;;20.86;89.68
66703;BME280;60933;46.398;-63.798;2023-07-29T07:03:20;100461.47;;;20.82;93.72
66703;BME280;60933;46.398;-63.798;2023-07-29T07:05:46;100457.50;;;20.77;91.53
66703;BME280;60933;46.398;-63.798;2023-07-29T07:08:12;100448.19;;;20.73;91.57
66703;BME280;60933;46.398;-63.798;2023-07-29T07:10:38;100451.84;;;20.70;88.84
66703;BME280;60933;46.398;-63.798;2023-07-29T07:13:04;100454.59;;;20.68;88.60
66703;BME280;60933;46.398;-63.798;2023-07-29T07:15:31;100453.84;;;20.66;88.45
66703;BME280;60933;46.398;-63.798;2023-07-29T07:17:57;100444.53;;;20.62;89.30
66703;BME280;60933;46.398;-63.798;2023-07-29T07:20:23;100456.31;;;20.56;89.45
66703;BME280;60933;46.398;-63.798;2023-07-29T07:22:49;100446.66;;;20.57;88.10
66703;BME280;60933;46.398;-63.798;2023-07-29T07:25:16;100444.03;;;20.57;87.96
66703;BME280;60933;46.398;-63.798;2023-07-29T07:27:42;100443.28;;;20.55;90.97
66703;BME280;60933;46.398;-63.798;2023-07-29T07:30:08;100430.63;;;20.49;87.84
66703;BME280;60933;46.398;-63.798;2023-07-29T07:32:34;100446.97;;;20.52;90.54
66703;BME280;60933;46.398;-63.798;2023-07-29T07:35:00;100444.69;;;20.48;89.59
66703;BME280;60933;46.398;-63.798;2023-07-29T07:37:27;100438.63;;;20.47;88.56
66703;BME280;60933;46.398;-63.798;2023-07-29T07:39:53;100437.66;;;20.48;92.05
66703;BME280;60933;46.398;-63.798;2023-07-29T07:42:19;100426.66;;;20.43;90.63
66703;BME280;60933;46.398;-63.798;2023-07-29T07:44:45;100435.56;;;20.40;90.65
66703;BME280;60933;46.398;-63.798;2023-07-29T07:47:11;100424.47;;;20.37;90.78
66703;BME280;60933;46.398;-63.798;2023-07-29T07:49:37;100421.34;;;20.32;89.88
66703;BME280;60933;46.398;-63.798;2023-07-29T07:52:03;100418.84;;;20.30;91.75
66703;BME280;60933;46.398;-63.798;2023-07-29T07:54:29;100408.78;;;20.24;90.36
66703;BME280;60933;46.398;-63.798;2023-07-29T07:56:55;100411.53;;;20.22;90.34
66703;BME280;60933;46.398;-63.798;2023-07-29T07:59:22;100409.84;;;20.21;90.16
66703;BME280;60933;46.398;-63.798;2023-07-29T08:01:48;100416.88;;;20.21;91.42
66703;BME280;60933;46.398;-63.798;2023-07-29T08:04:14;100412.56;;;20.20;94.61
66703;BME280;60933;46.398;-63.798;2023-07-29T08:06:40;100417.53;;;20.12;93.73
66703;BME280;60933;46.398;-63.798;2023-07-29T08:09:06;100414.78;;;20.13;90.81
66703;BME280;60933;46.398;-63.798;2023-07-29T08:11:32;100413.84;;;20.14;92.05
66703;BME280;60933;46.398;-63.798;2023-07-29T08:13:59;100420.66;;;20.17;91.48
66703;BME280;60933;46.398;-63.798;2023-07-29T08:16:25;100412.56;;;20.20;88.96
66703;BME280;60933;46.398;-63.798;2023-07-29T08:18:51;100409.00;;;20.21;88.67
66703;BME280;60933;46.398;-63.798;2023-07-29T08:21:17;100415.94;;;20.22;88.85
66703;BME280;60933;46.398;-63.798;2023-07-29T08:23:43;100417.59;;;20.23;88.19
66703;BME280;60933;46.398;-63.798;2023-07-29T08:26:09;100421.69;;;20.27;88.39
66703;BME280;60933;46.398;-63.798;2023-07-29T08:28:37;100435.72;;;20.26;89.41
66703;BME280;60933;46.398;-63.798;2023-07-29T08:31:04;100435.09;;;20.22;93.25
66703;BME280;60933;46.398;-63.798;2023-07-29T08:33:31;100425.88;;;20.17;93.04
66703;BME280;60933;46.398;-63.798;2023-07-29T08:35:59;100426.81;;;20.16;92.63
66703;BME280;60933;46.398;-63.798;2023-07-29T08:38:26;100416.69;;;20.11;93.68
66703;BME280;60933;46.398;-63.798;2023-07-29T08:41:13;100422.97;;;20.08;96.36
66703;BME280;60933;46.398;-63.798;2023-07-29T08:43:55;100412.81;;;20.04;92.00
66703;BME280;60933;46.398;-63.798;2023-07-29T08:46:23;100406.41;;;20.08;91.61
66703;BME280;60933;46.398;-63.798;2023-07-29T08:48:50;100405.69;;;20.06;95.08
66703;BME280;60933;46.398;-63.798;2023-07-29T08:51:17;100402.56;;;20.01;96.48
66703;BME280;60933;46.398;-63.798;2023-07-29T08:53:43;100392.50;;;19.95;95.02
66703;BME280;60933;46.398;-63.798;2023-07-29T08:56:09;100385.47;;;19.95;94.50
66703;BME280;60933;46.398;-63.798;2023-07-29T08:58:36;100394.41;;;19.92;94.98
66703;BME280;60933;46.398;-63.798;2023-07-29T09:01:03;100404.56;;;19.97;97.42
66703;BME280;60933;46.398;-63.798;2023-07-29T09:03:29;100401.06;;;19.97;98.83
66703;BME280;60933;46.398;-63.798;2023-07-29T09:05:57;100401.19;;;19.95;99.13
66703;BME280;60933;46.398;-63.798;2023-07-29T09:08:28;100400.47;;;19.93;100.00
66703;BME280;60933;46.398;-63.798;2023-07-29T09:10:55;100410.00;;;19.94;100.00
66703;BME280;60933;46.398;-63.798;2023-07-29T09:13:21;100407.50;;;19.92;99.45
66703;BME280;60933;46.398;-63.798;2023-07-29T09:15:48;100403.06;;;19.93;96.90
66703;BME280;60933;46.398;-63.798;2023-07-29T09:18:19;100395.84;;;19.97;96.60
66703;BME280;60933;46.398;-63.798;2023-07-29T09:20:49;100403.00;;;19.95;98.48
66703;BME280;60933;46.398;-63.798;2023-07-29T09:23:15;100393.56;;;19.92;100.00
66703;BME280;60933;46.398;-63.798;2023-07-29T09:25:42;100402.38;;;19.91;99.84
66703;BME280;60933;46.398;-63.798;2023-07-29T09:28:13;100392.09;;;19.88;100.00
66703;BME280;60933;46.398;-63.798;2023-07-29T09:30:41;100394.59;;;19.89;100.00
66703;BME280;60933;46.398;-63.798;2023-07-29T09:33:09;100392.09;;;19.88;100.00
66703;BME280;60933;46.398;-63.798;2023-07-29T09:35:36;100405.00;;;19.91;100.00
66703;BME280;60933;46.398;-63.798;2023-07-29T09:38:06;100398.56;;;19.95;100.00
66703;BME280;60933;46.398;-63.798;2023-07-29T09:40:39;100407.28;;;19.96;100.00
66703;BME280;60933;46.398;-63.798;2023-07-29T09:43:08;100406.94;;;20.00;100.00
66703;BME280;60933;46.398;-63.798;2023-07-29T09:45:36;100399.00;;;20.02;100.00
66703;BME280;60933;46.398;-63.798;2023-07-29T09:48:04;100400.44;;;20.06;100.00
66703;BME280;60933;46.398;-63.798;2023-07-29T09:50:35;100405.78;;;20.04;100.00
66703;BME280;60933;46.398;-63.798;2023-07-29T09:53:02;100398.56;;;20.08;100.00
66703;BME280;60933;46.398;-63.798;2023-07-29T09:55:28;100402.75;;;20.11;100.00
66703;BME280;60933;46.398;-63.798;2023-07-29T09:57:59;100396.34;;;20.15;100.00
66703;BME280;60933;46.398;-63.798;2023-07-29T10:00:32;100392.56;;;20.19;100.00
66703;BME280;60933;46.398;-63.798;2023-07-29T10:02:58;100396.72;;;20.21;100.00
66703;BME280;60933;46.398;-63.798;2023-07-29T10:05:28;100394.00;;;20.23;100.00
66703;BME280;60933;46.398;-63.798;2023-07-29T10:07:55;100417.38;;;20.26;100.00
66703;BME280;60933;46.398;-63.798;2023-07-29T10:10:22;100416.56;;;20.26;100.00
66703;BME280;60933;46.398;-63.798;2023-07-29T10:12:50;100406.91;;;20.26;100.00
66703;BME280;60933;46.398;-63.798;2023-07-29T10:15:16;100412.13;;;20.26;100.00
66703;BME280;60933;46.398;-63.798;2023-07-29T10:17:43;100420.84;;;20.27;100.00
66703;BME280;60933;46.398;-63.798;2023-07-29T10:20:10;100411.53;;;20.22;100.00
66703;BME280;60933;46.398;-63.798;2023-07-29T10:22:39;100412.69;;;20.18;100.00
66703;BME280;60933;46.398;-63.798;2023-07-29T10:25:15;100426.41;;;20.22;100.00
66703;BME280;60933;46.398;-63.798;2023-07-29T10:30:11;100445.88;;;20.31;100.00
66703;BME280;60933;46.398;-63.798;2023-07-29T10:32:42;100436.75;;;20.36;100.00
66703;BME280;60933;46.398;-63.798;2023-07-29T10:35:15;100440.63;;;20.44;100.00
66703;BME280;60933;46.398;-63.798;2023-07-29T10:37:42;100445.41;;;20.50;100.00
66703;BME280;60933;46.398;-63.798;2023-07-29T10:40:09;100450.53;;;20.51;100.00
66703;BME280;60933;46.398;-63.798;2023-07-29T10:42:37;100457.56;;;20.51;100.00
66703;BME280;60933;46.398;-63.798;2023-07-29T10:45:20;100461.56;;;20.56;100.00
66703;BME280;60933;46.398;-63.798;2023-07-29T10:47:47;100470.13;;;20.59;100.00
66703;BME280;60933;46.398;-63.798;2023-07-29T10:50:21;100473.38;;;20.62;100.00
66703;BME280;60933;46.398;-63.798;2023-07-29T10:52:52;100492.78;;;20.73;100.00
66703;BME280;60933;46.398;-63.798;2023-07-29T10:55:27;100514.19;;;20.79;99.60
66703;BME280;60933;46.398;-63.798;2023-07-29T10:58:15;100528.84;;;20.82;99.25
66703;BME280;60933;46.398;-63.798;2023-07-29T11:00:45;100515.00;;;20.80;99.96
66703;BME280;60933;46.398;-63.798;2023-07-29T11:03:13;100499.75;;;20.85;100.00
66703;BME280;60933;46.398;-63.798;2023-07-29T11:05:49;100480.44;;;20.86;100.00
66703;BME280;60933;46.398;-63.798;2023-07-29T11:08:29;100480.44;;;20.86;100.00
66703;BME280;60933;46.398;-63.798;2023-07-29T11:11:12;100499.75;;;20.85;99.97
66703;BME280;60933;46.398;-63.798;2023-07-29T11:13:38;100506.34;;;20.91;100.00
66703;BME280;60933;46.398;-63.798;2023-07-29T11:16:05;100497.22;;;20.96;99.77
66703;BME280;60933;46.398;-63.798;2023-07-29T11:18:35;100487.59;;;21.08;98.88
66703;BME280;60933;46.398;-63.798;2023-07-29T11:21:02;100499.44;;;21.14;98.04
66703;BME280;60933;46.398;-63.798;2023-07-29T11:23:34;100490.38;;;21.18;97.74
66703;BME280;60933;46.398;-63.798;2023-07-29T11:26:01;100481.22;;;21.24;96.88
66703;BME280;60933;46.398;-63.798;2023-07-29T11:28:29;100475.28;;;21.33;97.06
66703;BME280;60933;46.398;-63.798;2023-07-29T11:30:55;100481.75;;;21.40;96.25
66703;BME280;60933;46.398;-63.798;2023-07-29T11:33:26;100474.25;;;21.47;95.05
66703;BME280;60933;46.398;-63.798;2023-07-29T11:35:54;100481.44;;;21.56;94.16
66703;BME280;60933;46.398;-63.798;2023-07-29T11:38:22;100490.69;;;21.62;93.33
66703;BME280;60933;46.398;-63.798;2023-07-29T11:41:01;100486.03;;;21.65;92.72
66703;BME280;60933;46.398;-63.798;2023-07-29T11:43:35;100490.81;;;21.72;92.39
66703;BME280;60933;46.398;-63.798;2023-07-29T11:46:02;100481.28;;;21.82;91.99
66703;BME280;60933;46.398;-63.798;2023-07-29T11:48:32;100474.69;;;21.88;91.03
66703;BME280;60933;46.398;-63.798;2023-07-29T11:50:59;100478.66;;;21.93;89.22
66703;BME280;60933;46.398;-63.798;2023-07-29T11:53:28;100477.56;;;21.96;88.35
66703;BME280;60933;46.398;-63.798;2023-07-29T11:55:56;100467.22;;;22.06;88.36
66703;BME280;60933;46.398;-63.798;2023-07-29T11:58:22;100471.84;;;22.13;87.69
66703;BME280;60933;46.398;-63.798;2023-07-29T12:00:48;100482.00;;;22.18;86.34
66703;BME280;60933;46.398;-63.798;2023-07-29T12:03:16;100486.06;;;22.22;85.45
66703;BME280;60933;46.398;-63.798;2023-07-29T12:05:44;100488.69;;;22.34;85.58
66703;BME280;60933;46.398;-63.798;2023-07-29T12:08:10;100491.81;;;22.39;84.49
66703;BME280;60933;46.398;-63.798;2023-07-29T12:10:37;100481.19;;;22.40;83.83
66703;BME280;60933;46.398;-63.798;2023-07-29T12:13:03;100485.72;;;22.50;83.51
66703;BME280;60933;46.398;-63.798;2023-07-29T12:15:30;100490.38;;;22.46;81.41
66703;BME280;60933;46.398;-63.798;2023-07-29T12:17:57;100501.50;;;22.50;82.44
66703;BME280;60933;46.398;-63.798;2023-07-29T12:20:24;100493.84;;;22.47;81.78
66703;BME280;60933;46.398;-63.798;2023-07-29T12:22:58;100496.00;;;22.53;80.66
66703;BME280;60933;46.398;-63.798;2023-07-29T12:25:26;100507.13;;;22.45;77.54
66703;BME280;60933;46.398;-63.798;2023-07-29T12:27:52;100511.66;;;22.54;77.62
66703;BME280;60933;46.398;-63.798;2023-07-29T12:30:22;100510.94;;;22.64;74.90
66703;BME280;60933;46.398;-63.798;2023-07-29T12:32:50;100514.41;;;22.64;71.23
66703;BME280;60933;46.398;-63.798;2023-07-29T12:35:16;100513.56;;;22.64;68.64
66703;BME280;60933;46.398;-63.798;2023-07-29T12:37:42;100531.38;;;22.71;68.54